Time,TemperatureF,DewpointF,PressureIn,WindDirection,WindDirectionDegrees,WindSpeedMPH,WindSpeedGustMPH,Humidity,HourlyPrecipIn,Conditions,Clouds,dailyrainin,SoftwareType,DateUTC
2013-07-02 00:04:00,63.5,59.9,29.86,SW,230,0.0,25.0,88,0.00,,,0.00,Wunderground v.1.15,2013-07-02 07:04:00,
2013-07-02 00:09:00,63.4,59.8,29.86,SW,230,0.0,25.0,88,0.00,,,0.00,Wunderground v.1.15,2013-07-02 07:09:00,
2013-07-02 00:15:00,63.3,59.7,29.86,SW,230,0.0,25.0,88,0.00,,,0.00,Wunderground v.1.15,2013-07-02 07:15:00,
2013-07-02 00:20:00,63.2,59.9,29.86,SW,230,0.0,25.0,89,0.00,,,0.00,Wunderground v.1.15,2013-07-02 07:20:00,
2013-07-02 00:25:00,63.2,59.9,29.85,SW,230,0.0,25.0,89,0.00,,,0.00,Wunderground v.1.15,2013-07-02 07:25:00,
2013-07-02 00:31:00,63.2,59.9,29.86,SW,230,0.0,25.0,89,0.00,,,0.00,Wunderground v.1.15,2013-07-02 07:31:00,
2013-07-02 00:37:00,63.1,59.8,29.86,SW,230,0.0,25.0,89,0.00,,,0.00,Wunderground v.1.15,2013-07-02 07:37:00,
2013-07-02 00:43:00,63.0,59.7,29.86,NW,306,0.0,25.0,89,0.00,,,0.00,Wunderground v.1.15,2013-07-02 07:43:00,
2013-07-02 00:49:00,63.0,60.0,29.86,NW,306,0.0,25.0,90,0.00,,,0.00,Wunderground v.1.15,2013-07-02 07:49:00,
2013-07-02 00:55:00,63.0,60.0,29.86,NW,306,0.0,25.0,90,0.00,,,0.00,Wunderground v.1.15,2013-07-02 07:55:00,
2013-07-02 01:01:00,63.1,60.1,29.86,NW,306,0.0,25.0,90,0.00,,,0.00,Wunderground v.1.15,2013-07-02 08:01:00,
2013-07-02 01:07:00,63.1,60.1,29.86,NW,306,0.0,25.0,90,0.00,,,0.00,Wunderground v.1.15,2013-07-02 08:07:00,
2013-07-02 01:12:00,63.1,60.4,29.86,NW,306,0.0,25.0,91,0.00,,,0.00,Wunderground v.1.15,2013-07-02 08:12:00,
2013-07-02 01:17:00,63.1,60.1,29.86,NW,306,0.0,25.0,90,0.00,,,0.00,Wunderground v.1.15,2013-07-02 08:17:00,
2013-07-02 01:23:00,63.1,60.1,29.86,NW,306,0.0,25.0,90,0.00,,,0.00,Wunderground v.1.15,2013-07-02 08:23:00,
2013-07-02 01:29:00,62.9,59.9,29.86,NW,306,0.0,25.0,90,0.00,,,0.00,Wunderground v.1.15,2013-07-02 08:29:00,
2013-07-02 01:35:00,62.8,59.8,29.86,NW,306,0.0,25.0,90,0.00,,,0.00,Wunderground v.1.15,2013-07-02 08:35:00,
2013-07-02 01:40:00,62.7,59.7,29.86,NW,306,0.0,25.0,90,0.00,,,0.00,Wunderground v.1.15,2013-07-02 08:40:00,
2013-07-02 01:45:00,62.7,59.7,29.87,NW,306,0.0,25.0,90,0.00,,,0.00,Wunderground v.1.15,2013-07-02 08:45:00,
2013-07-02 01:51:00,62.6,59.6,29.87,NW,306,0.0,25.0,90,0.00,,,0.00,Wunderground v.1.15,2013-07-02 08:51:00,
2013-07-02 01:57:00,62.4,59.4,29.87,NW,306,0.0,25.0,90,0.00,,,0.00,Wunderground v.1.15,2013-07-02 08:57:00,
2013-07-02 02:03:00,62.2,59.2,29.87,NW,306,0.0,25.0,90,0.00,,,0.00,Wunderground v.1.15,2013-07-02 09:03:00,
2013-07-02 02:09:00,62.1,59.1,29.87,NW,306,0.0,25.0,90,0.00,,,0.00,Wunderground v.1.15,2013-07-02 09:09:00,
2013-07-02 02:15:00,62.0,59.0,29.87,NW,306,0.0,25.0,90,0.00,,,0.00,Wunderground v.1.15,2013-07-02 09:15:00,
2013-07-02 02:21:00,61.8,59.1,29.87,NW,306,0.0,25.0,91,0.00,,,0.00,Wunderground v.1.15,2013-07-02 09:21:00,
2013-07-02 02:27:00,61.7,59.0,29.87,NW,306,0.0,25.0,91,0.00,,,0.00,Wunderground v.1.15,2013-07-02 09:27:00,
2013-07-02 02:33:00,61.7,59.0,29.87,NW,306,0.0,25.0,91,0.00,,,0.00,Wunderground v.1.15,2013-07-02 09:33:00,
2013-07-02 02:38:00,61.7,59.4,29.87,NW,306,0.0,25.0,92,0.00,,,0.00,Wunderground v.1.15,2013-07-02 09:38:00,
2013-07-02 02:43:00,61.7,59.4,29.87,NW,306,0.0,25.0,92,0.00,,,0.00,Wunderground v.1.15,2013-07-02 09:43:00,
2013-07-02 02:49:00,61.7,59.0,29.87,NW,306,0.0,25.0,91,0.00,,,0.00,Wunderground v.1.15,2013-07-02 09:49:00,
2013-07-02 02:55:00,61.6,59.3,29.87,NW,306,0.0,25.0,92,0.00,,,0.00,Wunderground v.1.15,2013-07-02 09:55:00,
2013-07-02 03:01:00,61.5,59.2,29.87,NW,306,0.0,25.0,92,0.00,,,0.00,Wunderground v.1.15,2013-07-02 10:01:00,
2013-07-02 03:07:00,61.6,59.3,29.88,NW,306,0.0,25.0,92,0.00,,,0.00,Wunderground v.1.15,2013-07-02 10:07:00,
2013-07-02 03:12:00,61.6,59.3,29.88,NW,306,0.0,25.0,92,0.00,,,0.00,Wunderground v.1.15,2013-07-02 10:12:00,
2013-07-02 03:18:00,61.5,59.2,29.88,NW,306,0.0,25.0,92,0.00,,,0.00,Wunderground v.1.15,2013-07-02 10:18:00,
2013-07-02 03:24:00,61.4,59.1,29.88,NW,306,0.0,25.0,92,0.00,,,0.00,Wunderground v.1.15,2013-07-02 10:24:00,
2013-07-02 03:29:00,61.3,59.0,29.88,NW,306,0.0,25.0,92,0.00,,,0.00,Wunderground v.1.15,2013-07-02 10:29:00,
2013-07-02 03:34:00,61.3,59.0,29.88,NW,306,0.0,25.0,92,0.00,,,0.00,Wunderground v.1.15,2013-07-02 10:34:00,
2013-07-02 03:40:00,61.4,59.4,29.88,SW,225,0.0,25.0,93,0.00,,,0.00,Wunderground v.1.15,2013-07-02 10:40:00,
2013-07-02 03:46:00,61.9,60.2,29.88,South,180,0.0,25.0,94,0.00,,,0.00,Wunderground v.1.15,2013-07-02 10:46:00,
2013-07-02 03:51:00,62.2,60.5,29.88,South,180,1.0,25.0,94,0.00,,,0.00,Wunderground v.1.15,2013-07-02 10:51:00,
2013-07-02 03:56:00,62.1,60.4,29.89,South,180,0.0,25.0,94,0.00,,,0.00,Wunderground v.1.15,2013-07-02 10:56:00,
2013-07-02 04:02:00,61.9,59.9,29.89,South,180,0.0,25.0,93,0.00,,,0.00,Wunderground v.1.15,2013-07-02 11:02:00,
2013-07-02 04:07:00,61.7,59.7,29.89,South,180,0.0,25.0,93,0.00,,,0.00,Wunderground v.1.15,2013-07-02 11:07:00,
2013-07-02 04:12:00,61.5,59.5,29.90,SE,145,0.0,25.0,93,0.00,,,0.00,Wunderground v.1.15,2013-07-02 11:12:00,
2013-07-02 04:18:00,61.4,59.4,29.89,ESE,115,0.0,25.0,93,0.00,,,0.00,Wunderground v.1.15,2013-07-02 11:18:00,
2013-07-02 04:24:00,61.3,59.3,29.89,ESE,115,0.0,25.0,93,0.00,,,0.00,Wunderground v.1.15,2013-07-02 11:24:00,
2013-07-02 04:29:00,61.1,59.1,29.89,ESE,115,0.0,25.0,93,0.00,,,0.00,Wunderground v.1.15,2013-07-02 11:29:00,
2013-07-02 04:35:00,60.9,58.9,29.89,ESE,104,0.0,25.0,93,0.00,,,0.00,Wunderground v.1.15,2013-07-02 11:35:00,
2013-07-02 04:41:00,60.8,58.8,29.89,East,92,0.0,25.0,93,0.00,,,0.00,Wunderground v.1.15,2013-07-02 11:41:00,
2013-07-02 04:46:00,60.7,58.7,29.89,NNE,13,0.0,25.0,93,0.00,,,0.00,Wunderground v.1.15,2013-07-02 11:46:00,
2013-07-02 04:52:00,60.8,59.1,29.89,North,11,0.0,25.0,94,0.00,,,0.00,Wunderground v.1.15,2013-07-02 11:52:00,
2013-07-02 04:57:00,60.7,59.0,29.89,North,11,0.0,25.0,94,0.00,,,0.00,Wunderground v.1.15,2013-07-02 11:57:00,
2013-07-02 05:03:00,60.6,58.9,29.89,North,11,0.0,25.0,94,0.00,,,0.00,Wunderground v.1.15,2013-07-02 12:03:00,
2013-07-02 05:08:00,60.6,58.6,29.89,North,11,0.0,25.0,93,0.00,,,0.00,Wunderground v.1.15,2013-07-02 12:08:00,
2013-07-02 05:13:00,60.6,58.9,29.89,NNE,28,0.0,25.0,94,0.00,,,0.00,Wunderground v.1.15,2013-07-02 12:13:00,
2013-07-02 05:18:00,60.5,58.5,29.89,NNE,28,0.0,25.0,93,0.00,,,0.00,Wunderground v.1.15,2013-07-02 12:18:00,
2013-07-02 05:23:00,60.2,58.2,29.89,NNE,19,0.0,25.0,93,0.00,,,0.00,Wunderground v.1.15,2013-07-02 12:23:00,
2013-07-02 05:29:00,59.9,57.9,29.89,NNE,19,0.0,25.0,93,0.00,,,0.00,Wunderground v.1.15,2013-07-02 12:29:00,
2013-07-02 05:34:00,59.7,57.7,29.89,NNE,19,0.0,25.0,93,0.00,,,0.00,Wunderground v.1.15,2013-07-02 12:34:00,
2013-07-02 05:39:00,59.7,57.7,29.89,NNE,19,0.0,25.0,93,0.00,,,0.00,Wunderground v.1.15,2013-07-02 12:39:00,
2013-07-02 05:45:00,59.6,57.6,29.89,NNE,19,0.0,25.0,93,0.00,,,0.00,Wunderground v.1.15,2013-07-02 12:45:00,
2013-07-02 05:50:00,59.4,57.4,29.89,NNE,19,0.0,25.0,93,0.00,,,0.00,Wunderground v.1.15,2013-07-02 12:50:00,
2013-07-02 05:56:00,59.3,57.3,29.89,NNE,19,0.0,25.0,93,0.00,,,0.00,Wunderground v.1.15,2013-07-02 12:56:00,
2013-07-02 06:02:00,59.3,57.3,29.89,NNE,19,0.0,25.0,93,0.00,,,0.00,Wunderground v.1.15,2013-07-02 13:02:00,
2013-07-02 06:08:00,59.2,57.2,29.89,NNE,19,0.0,25.0,93,0.00,,,0.00,Wunderground v.1.15,2013-07-02 13:08:00,
2013-07-02 06:13:00,59.1,57.1,29.88,NNE,19,0.0,25.0,93,0.00,,,0.00,Wunderground v.1.15,2013-07-02 13:13:00,
2013-07-02 06:19:00,59.0,57.3,29.88,NNE,19,0.0,25.0,94,0.00,,,0.00,Wunderground v.1.15,2013-07-02 13:19:00,
2013-07-02 06:25:00,59.1,57.4,29.89,NNE,19,0.0,25.0,94,0.00,,,0.00,Wunderground v.1.15,2013-07-02 13:25:00,
2013-07-02 06:31:00,59.3,57.9,29.89,NE,48,0.0,25.0,95,0.00,,,0.00,Wunderground v.1.15,2013-07-02 13:31:00,
2013-07-02 06:37:00,59.8,58.4,29.90,ENE,59,1.0,25.0,95,0.00,,,0.00,Wunderground v.1.15,2013-07-02 13:37:00,
2013-07-02 06:43:00,60.4,59.3,29.90,NE,52,1.0,25.0,96,0.00,,,0.00,Wunderground v.1.15,2013-07-02 13:43:00,
2013-07-02 06:49:00,60.9,59.8,29.90,NE,55,1.0,25.0,96,0.00,,,0.00,Wunderground v.1.15,2013-07-02 13:49:00,
2013-07-02 06:54:00,61.3,60.2,29.90,ENE,57,2.0,25.0,96,0.00,,,0.00,Wunderground v.1.15,2013-07-02 13:54:00,
2013-07-02 06:59:00,61.8,60.6,29.90,NE,49,1.0,25.0,96,0.00,,,0.00,Wunderground v.1.15,2013-07-02 13:59:00,
2013-07-02 07:04:00,62.2,61.0,29.90,NE,47,1.0,25.0,96,0.00,,,0.00,Wunderground v.1.15,2013-07-02 14:04:00,
2013-07-02 07:09:00,62.7,61.5,29.90,NE,48,0.0,25.0,96,0.00,,,0.00,Wunderground v.1.15,2013-07-02 14:09:00,
2013-07-02 07:14:00,63.2,62.0,29.90,East,90,0.0,25.0,96,0.00,,,0.00,Wunderground v.1.15,2013-07-02 14:14:00,
2013-07-02 07:19:00,63.5,62.0,29.91,East,90,0.0,25.0,95,0.00,,,0.00,Wunderground v.1.15,2013-07-02 14:19:00,
2013-07-02 07:25:00,64.0,62.2,29.91,East,84,0.0,25.0,94,0.00,,,0.00,Wunderground v.1.15,2013-07-02 14:25:00,
2013-07-02 07:30:00,64.7,62.9,29.92,ENE,74,1.0,1.0,94,0.00,,,0.00,Wunderground v.1.15,2013-07-02 14:30:00,
2013-07-02 07:36:00,65.6,63.2,29.92,ENE,64,0.0,25.0,92,0.00,,,0.00,Wunderground v.1.15,2013-07-02 14:36:00,
2013-07-02 07:41:00,66.6,63.9,29.92,NE,53,0.0,25.0,91,0.00,,,0.00,Wunderground v.1.15,2013-07-02 14:41:00,
2013-07-02 07:47:00,67.6,63.9,29.92,ENE,61,0.0,25.0,88,0.00,,,0.00,Wunderground v.1.15,2013-07-02 14:47:00,
2013-07-02 07:53:00,68.8,64.1,29.92,ENE,69,0.0,25.0,85,0.00,,,0.00,Wunderground v.1.15,2013-07-02 14:53:00,
2013-07-02 07:58:00,69.5,64.1,29.92,ENE,69,0.0,25.0,83,0.00,,,0.00,Wunderground v.1.15,2013-07-02 14:58:00,
2013-07-02 08:03:00,70.3,64.2,29.92,ENE,69,0.0,25.0,81,0.00,,,0.00,Wunderground v.1.15,2013-07-02 15:03:00,
2013-07-02 08:08:00,70.6,64.1,29.92,ESE,105,0.0,25.0,80,0.00,,,0.00,Wunderground v.1.15,2013-07-02 15:08:00,
2013-07-02 08:13:00,71.1,63.5,29.92,ESE,115,0.0,25.0,77,0.00,,,0.00,Wunderground v.1.15,2013-07-02 15:13:00,
2013-07-02 08:18:00,71.4,63.8,29.92,SE,134,0.0,25.0,77,0.00,,,0.00,Wunderground v.1.15,2013-07-02 15:18:00,
2013-07-02 08:23:00,72.1,64.1,29.92,SE,137,0.0,25.0,76,0.00,,,0.00,Wunderground v.1.15,2013-07-02 15:23:00,
2013-07-02 08:28:00,73.0,64.2,29.92,SE,137,0.0,25.0,74,0.00,,,0.00,Wunderground v.1.15,2013-07-02 15:28:00,
2013-07-02 08:33:00,73.9,64.3,29.92,SE,137,0.0,25.0,72,0.00,,,0.00,Wunderground v.1.15,2013-07-02 15:33:00,
2013-07-02 08:38:00,74.7,64.7,29.92,SE,144,0.0,25.0,71,0.00,,,0.00,Wunderground v.1.15,2013-07-02 15:38:00,
2013-07-02 08:43:00,75.2,64.3,29.92,South,186,1.0,25.0,69,0.00,,,0.00,Wunderground v.1.15,2013-07-02 15:43:00,
2013-07-02 08:48:00,75.5,63.3,29.91,South,174,1.0,25.0,66,0.00,,,0.00,Wunderground v.1.15,2013-07-02 15:48:00,
2013-07-02 08:54:00,75.7,64.0,29.91,SSW,196,2.0,25.0,67,0.00,,,0.00,Wunderground v.1.15,2013-07-02 15:54:00,
2013-07-02 08:59:00,76.2,63.6,29.92,SW,214,1.0,25.0,65,0.00,,,0.00,Wunderground v.1.15,2013-07-02 15:59:00,
2013-07-02 09:04:00,76.7,64.9,29.92,South,185,2.0,25.0,67,0.00,,,0.00,Wunderground v.1.15,2013-07-02 16:04:00,
2013-07-02 09:09:00,77.0,64.3,29.91,SSW,211,2.0,25.0,65,0.00,,,0.00,Wunderground v.1.15,2013-07-02 16:09:00,
2013-07-02 09:15:00,77.5,65.2,29.92,SSW,213,2.0,25.0,66,0.00,,,0.00,Wunderground v.1.15,2013-07-02 16:15:00,
2013-07-02 09:21:00,77.9,66.1,29.92,SW,233,2.0,25.0,67,0.00,,,0.00,Wunderground v.1.15,2013-07-02 16:21:00,
2013-07-02 09:26:00,78.0,66.2,29.91,SSW,211,2.0,25.0,67,0.00,,,0.00,Wunderground v.1.15,2013-07-02 16:26:00,
2013-07-02 09:31:00,77.9,66.1,29.91,SW,224,2.0,25.0,67,0.00,,,0.00,Wunderground v.1.15,2013-07-02 16:31:00,
2013-07-02 09:37:00,77.3,65.5,29.91,SW,225,3.0,25.0,67,0.00,,,0.00,Wunderground v.1.15,2013-07-02 16:37:00,
2013-07-02 09:43:00,76.9,65.5,29.91,WSW,244,4.0,25.0,68,0.00,,,0.00,Wunderground v.1.15,2013-07-02 16:43:00,
2013-07-02 09:48:00,76.9,66.0,29.92,SSW,206,3.0,25.0,69,0.00,,,0.00,Wunderground v.1.15,2013-07-02 16:48:00,
2013-07-02 09:54:00,76.8,65.9,29.92,SW,215,3.0,25.0,69,0.00,,,0.00,Wunderground v.1.15,2013-07-02 16:54:00,
2013-07-02 09:59:00,76.9,65.5,29.91,SSW,202,3.0,25.0,68,0.00,,,0.00,Wunderground v.1.15,2013-07-02 16:59:00,
2013-07-02 10:05:00,76.9,65.5,29.92,SW,222,3.0,25.0,68,0.00,,,0.00,Wunderground v.1.15,2013-07-02 17:05:00,
2013-07-02 10:11:00,77.2,65.4,29.91,SSW,213,3.0,25.0,67,0.00,,,0.00,Wunderground v.1.15,2013-07-02 17:11:00,
2013-07-02 10:16:00,77.3,66.3,29.91,SSW,201,4.0,25.0,69,0.00,,,0.00,Wunderground v.1.15,2013-07-02 17:16:00,
2013-07-02 10:22:00,77.7,65.9,29.91,SSW,198,3.0,25.0,67,0.00,,,0.00,Wunderground v.1.15,2013-07-02 17:22:00,
2013-07-02 10:28:00,77.5,65.7,29.91,SSW,213,4.0,25.0,67,0.00,,,0.00,Wunderground v.1.15,2013-07-02 17:28:00,
2013-07-02 10:33:00,77.6,66.2,29.91,WSW,239,4.0,25.0,68,0.00,,,0.00,Wunderground v.1.15,2013-07-02 17:33:00,
2013-07-02 10:39:00,78.0,65.7,29.91,WSW,246,5.0,25.0,66,0.00,,,0.00,Wunderground v.1.15,2013-07-02 17:39:00,
2013-07-02 10:45:00,78.3,66.9,29.91,WSW,248,6.0,25.0,68,0.00,,,0.00,Wunderground v.1.15,2013-07-02 17:45:00,
2013-07-02 10:50:00,78.6,66.3,29.91,West,262,6.0,6.0,66,0.00,,,0.00,Wunderground v.1.15,2013-07-02 17:50:00,
2013-07-02 10:55:00,78.5,65.8,29.92,SW,234,6.0,25.0,65,0.00,,,0.00,Wunderground v.1.15,2013-07-02 17:55:00,
2013-07-02 11:00:00,78.3,66.0,29.92,SSW,205,6.0,6.0,66,0.00,,,0.00,Wunderground v.1.15,2013-07-02 18:00:00,
2013-07-02 11:05:00,78.3,66.0,29.92,SW,219,5.0,25.0,66,0.00,,,0.00,Wunderground v.1.15,2013-07-02 18:05:00,
2013-07-02 11:11:00,78.3,66.0,29.92,SSW,202,5.0,25.0,66,0.00,,,0.00,Wunderground v.1.15,2013-07-02 18:11:00,
2013-07-02 11:17:00,78.6,65.8,29.93,WSW,256,5.0,25.0,65,0.00,,,0.00,Wunderground v.1.15,2013-07-02 18:17:00,
2013-07-02 11:23:00,78.8,65.1,29.92,WSW,239,6.0,25.0,63,0.00,,,0.00,Wunderground v.1.15,2013-07-02 18:23:00,
2013-07-02 11:28:00,78.9,64.8,29.93,WSW,240,8.0,25.0,62,0.00,,,0.00,Wunderground v.1.15,2013-07-02 18:28:00,
2013-07-02 11:33:00,78.9,65.7,29.93,WSW,248,7.0,25.0,64,0.00,,,0.00,Wunderground v.1.15,2013-07-02 18:33:00,
2013-07-02 11:38:00,79.0,65.3,29.93,SW,228,8.0,25.0,63,0.00,,,0.00,Wunderground v.1.15,2013-07-02 18:38:00,
2013-07-02 11:44:00,78.8,64.7,29.94,WSW,252,8.0,25.0,62,0.00,,,0.00,Wunderground v.1.15,2013-07-02 18:44:00,
2013-07-02 11:50:00,78.8,65.1,29.94,SSW,207,8.0,8.0,63,0.00,,,0.00,Wunderground v.1.15,2013-07-02 18:50:00,
2013-07-02 11:55:00,78.7,65.0,29.94,SW,221,7.0,25.0,63,0.00,,,0.00,Wunderground v.1.15,2013-07-02 18:55:00,
2013-07-02 12:01:00,78.8,64.7,29.94,WSW,251,7.0,25.0,62,0.00,,,0.00,Wunderground v.1.15,2013-07-02 19:01:00,
2013-07-02 12:06:00,78.9,65.7,29.95,WSW,258,6.0,25.0,64,0.00,,,0.00,Wunderground v.1.15,2013-07-02 19:06:00,
2013-07-02 12:11:00,78.7,64.1,29.95,WSW,252,7.0,25.0,61,0.00,,,0.00,Wunderground v.1.15,2013-07-02 19:11:00,
2013-07-02 12:17:00,78.3,64.2,29.95,SW,234,8.0,25.0,62,0.00,,,0.00,Wunderground v.1.15,2013-07-02 19:17:00,
2013-07-02 12:23:00,78.0,64.4,29.96,WSW,251,8.0,25.0,63,0.00,,,0.00,Wunderground v.1.15,2013-07-02 19:23:00,
2013-07-02 12:29:00,78.0,63.9,29.96,WSW,246,8.0,25.0,62,0.00,,,0.00,Wunderground v.1.15,2013-07-02 19:29:00,
2013-07-02 12:35:00,77.9,63.8,29.96,WSW,238,10.0,25.0,62,0.00,,,0.00,Wunderground v.1.15,2013-07-02 19:35:00,
2013-07-02 12:40:00,78.2,64.1,29.96,WSW,244,9.0,9.0,62,0.00,,,0.00,Wunderground v.1.15,2013-07-02 19:40:00,
2013-07-02 12:46:00,78.3,64.2,29.96,SW,230,9.0,25.0,62,0.00,,,0.00,Wunderground v.1.15,2013-07-02 19:46:00,
2013-07-02 12:51:00,78.1,64.0,29.96,SSW,200,8.0,25.0,62,0.00,,,0.00,Wunderground v.1.15,2013-07-02 19:51:00,
2013-07-02 12:56:00,78.2,64.1,29.97,WSW,250,7.0,25.0,62,0.00,,,0.00,Wunderground v.1.15,2013-07-02 19:56:00,
2013-07-02 13:01:00,78.4,63.8,29.97,WSW,248,7.0,25.0,61,0.00,,,0.00,Wunderground v.1.15,2013-07-02 20:01:00,
2013-07-02 13:07:00,78.3,64.2,29.96,WSW,237,8.0,25.0,62,0.00,,,0.00,Wunderground v.1.15,2013-07-02 20:07:00,
2013-07-02 13:12:00,78.4,63.8,29.96,WSW,252,8.0,25.0,61,0.00,,,0.00,Wunderground v.1.15,2013-07-02 20:12:00,
2013-07-02 13:18:00,77.8,63.3,29.96,West,261,10.0,25.0,61,0.00,,,0.00,Wunderground v.1.15,2013-07-02 20:18:00,
2013-07-02 13:23:00,77.7,63.6,29.97,SW,225,10.0,25.0,62,0.00,,,0.00,Wunderground v.1.15,2013-07-02 20:23:00,
2013-07-02 13:28:00,77.6,63.5,29.97,SW,222,7.0,25.0,62,0.00,,,0.00,Wunderground v.1.15,2013-07-02 20:28:00,
2013-07-02 13:33:00,77.4,63.8,29.97,SSW,207,7.0,25.0,63,0.00,,,0.00,Wunderground v.1.15,2013-07-02 20:33:00,
2013-07-02 13:39:00,77.3,63.7,29.97,South,175,8.0,25.0,63,0.00,,,0.00,Wunderground v.1.15,2013-07-02 20:39:00,
2013-07-02 13:45:00,77.6,64.0,29.97,West,267,9.0,25.0,63,0.00,,,0.00,Wunderground v.1.15,2013-07-02 20:45:00,
2013-07-02 13:51:00,77.1,63.5,29.97,SW,221,9.0,25.0,63,0.00,,,0.00,Wunderground v.1.15,2013-07-02 20:51:00,
2013-07-02 13:57:00,75.9,62.8,29.97,West,273,10.0,25.0,64,0.00,,,0.00,Wunderground v.1.15,2013-07-02 20:57:00,
2013-07-02 14:02:00,75.7,63.5,29.97,SW,227,9.0,25.0,66,0.00,,,0.00,Wunderground v.1.15,2013-07-02 21:02:00,
2013-07-02 14:08:00,75.9,63.3,29.96,WSW,241,8.0,25.0,65,0.00,,,0.00,Wunderground v.1.15,2013-07-02 21:08:00,
2013-07-02 14:13:00,75.9,63.3,29.96,South,182,8.0,25.0,65,0.00,,,0.00,Wunderground v.1.15,2013-07-02 21:13:00,
2013-07-02 14:19:00,75.6,63.9,29.95,South,191,6.0,25.0,67,0.00,,,0.00,Wunderground v.1.15,2013-07-02 21:19:00,
2013-07-02 14:24:00,76.1,64.8,29.95,SSW,212,5.0,25.0,68,0.00,,,0.00,Wunderground v.1.15,2013-07-02 21:24:00,
2013-07-02 14:30:00,76.7,64.0,29.95,SW,229,4.0,25.0,65,0.00,,,0.00,Wunderground v.1.15,2013-07-02 21:30:00,
2013-07-02 14:36:00,77.0,63.9,29.95,SW,215,5.0,25.0,64,0.00,,,0.00,Wunderground v.1.15,2013-07-02 21:36:00,
2013-07-02 14:41:00,77.1,63.5,29.95,WSW,244,5.0,9.0,63,0.00,,,0.00,Wunderground v.1.15,2013-07-02 21:41:00,
2013-07-02 14:47:00,78.0,64.4,29.94,SW,234,6.0,25.0,63,0.00,,,0.00,Wunderground v.1.15,2013-07-02 21:47:00,
2013-07-02 14:52:00,78.4,63.4,29.94,SW,232,7.0,25.0,60,0.00,,,0.00,Wunderground v.1.15,2013-07-02 21:52:00,
2013-07-02 14:58:00,78.5,63.0,29.94,SSW,207,6.0,25.0,59,0.00,,,0.00,Wunderground v.1.15,2013-07-02 21:58:00,
2013-07-02 15:04:00,78.3,63.7,29.93,WSW,249,6.0,25.0,61,0.00,,,0.00,Wunderground v.1.15,2013-07-02 22:04:00,
2013-07-02 15:09:00,78.1,63.6,29.93,WSW,240,6.0,25.0,61,0.00,,,0.00,Wunderground v.1.15,2013-07-02 22:09:00,
2013-07-02 15:14:00,78.1,64.0,29.93,SW,230,7.0,25.0,62,0.00,,,0.00,Wunderground v.1.15,2013-07-02 22:14:00,
2013-07-02 15:19:00,78.6,64.5,29.93,WSW,240,7.0,25.0,62,0.00,,,0.00,Wunderground v.1.15,2013-07-02 22:19:00,
2013-07-02 15:25:00,79.2,63.6,29.93,WSW,238,6.0,25.0,59,0.00,,,0.00,Wunderground v.1.15,2013-07-02 22:25:00,
2013-07-02 15:30:00,79.7,64.1,29.92,West,261,6.0,6.0,59,0.00,,,0.00,Wunderground v.1.15,2013-07-02 22:30:00,
2013-07-02 15:36:00,80.3,63.7,29.92,West,259,6.0,25.0,57,0.00,,,0.00,Wunderground v.1.15,2013-07-02 22:36:00,
2013-07-02 15:41:00,81.0,64.3,29.92,SW,234,5.0,25.0,57,0.00,,,0.00,Wunderground v.1.15,2013-07-02 22:41:00,
2013-07-02 15:46:00,81.3,64.1,29.92,SW,217,4.0,25.0,56,0.00,,,0.00,Wunderground v.1.15,2013-07-02 22:46:00,
2013-07-02 15:51:00,81.2,63.5,29.92,West,268,5.0,25.0,55,0.00,,,0.00,Wunderground v.1.15,2013-07-02 22:51:00,
2013-07-02 15:57:00,81.2,64.0,29.91,SW,229,5.0,25.0,56,0.00,,,0.00,Wunderground v.1.15,2013-07-02 22:57:00,
2013-07-02 16:02:00,81.1,63.9,29.91,SW,234,4.0,25.0,56,0.00,,,0.00,Wunderground v.1.15,2013-07-02 23:02:00,
2013-07-02 16:08:00,80.7,63.5,29.91,WNW,284,5.0,25.0,56,0.00,,,0.00,Wunderground v.1.15,2013-07-02 23:08:00,
2013-07-02 16:13:00,80.7,64.1,29.91,South,188,5.0,25.0,57,0.00,,,0.00,Wunderground v.1.15,2013-07-02 23:13:00,
2013-07-02 16:19:00,80.5,63.9,29.91,SW,217,4.0,25.0,57,0.00,,,0.00,Wunderground v.1.15,2013-07-02 23:19:00,
2013-07-02 16:25:00,79.8,64.2,29.90,WSW,250,4.0,25.0,59,0.00,,,0.00,Wunderground v.1.15,2013-07-02 23:25:00,
2013-07-02 16:31:00,79.7,64.1,29.90,West,259,6.0,25.0,59,0.00,,,0.00,Wunderground v.1.15,2013-07-02 23:31:00,
2013-07-02 16:37:00,79.7,63.6,29.90,WSW,244,7.0,25.0,58,0.00,,,0.00,Wunderground v.1.15,2013-07-02 23:37:00,
2013-07-02 16:43:00,79.9,63.8,29.89,WSW,241,8.0,25.0,58,0.00,,,0.00,Wunderground v.1.15,2013-07-02 23:43:00,
2013-07-02 16:49:00,80.2,63.6,29.89,West,261,7.0,25.0,57,0.00,,,0.00,Wunderground v.1.15,2013-07-02 23:49:00,
2013-07-02 16:55:00,79.4,63.3,29.89,SW,218,7.0,25.0,58,0.00,,,0.00,Wunderground v.1.15,2013-07-02 23:55:00,
2013-07-02 17:00:00,79.2,63.6,29.89,West,264,7.0,7.0,59,0.00,,,0.00,Wunderground v.1.15,2013-07-03 00:00:00,
2013-07-02 17:05:00,79.1,63.1,29.89,WSW,238,6.0,25.0,58,0.00,,,0.00,Wunderground v.1.15,2013-07-03 00:05:00,
2013-07-02 17:11:00,78.3,62.8,29.89,WSW,250,6.0,25.0,59,0.00,,,0.00,Wunderground v.1.15,2013-07-03 00:11:00,
2013-07-02 17:12:00,78.2,63.2,29.89,WSW,254,7.0,25.0,60,0.00,,,0.00,Wunderground v.1.15,2013-07-03 00:12:00,
2013-07-02 17:18:00,77.1,62.6,29.89,West,264,7.0,25.0,61,0.00,,,0.00,Wunderground v.1.15,2013-07-03 00:18:00,
2013-07-02 17:24:00,76.5,62.5,29.89,WSW,242,7.0,25.0,62,0.00,,,0.00,Wunderground v.1.15,2013-07-03 00:24:00,
2013-07-02 17:30:00,75.6,62.1,29.90,WSW,251,7.0,7.0,63,0.00,,,0.00,Wunderground v.1.15,2013-07-03 00:30:00,
2013-07-02 17:36:00,74.9,61.9,29.90,WSW,238,7.0,25.0,64,0.00,,,0.00,Wunderground v.1.15,2013-07-03 00:36:00,
2013-07-02 17:42:00,74.4,61.9,29.90,WSW,241,7.0,25.0,65,0.00,,,0.00,Wunderground v.1.15,2013-07-03 00:42:00,
2013-07-02 17:45:00,74.2,61.7,29.90,WSW,252,6.0,25.0,65,0.00,,,0.00,Wunderground v.1.15,2013-07-03 00:45:00,
2013-07-02 17:51:00,73.9,61.8,29.90,West,259,6.0,8.0,66,0.00,,,0.00,Wunderground v.1.15,2013-07-03 00:51:00,
2013-07-02 17:57:00,73.8,61.7,29.90,WNW,292,6.0,25.0,66,0.00,,,0.00,Wunderground v.1.15,2013-07-03 00:57:00,
2013-07-02 18:02:00,73.7,61.2,29.90,WSW,249,6.0,25.0,65,0.00,,,0.00,Wunderground v.1.15,2013-07-03 01:02:00,
2013-07-02 18:06:00,73.7,61.2,29.90,WSW,255,6.0,25.0,65,0.00,,,0.00,Wunderground v.1.15,2013-07-03 01:06:00,
2013-07-02 18:11:00,73.5,61.0,29.90,West,265,7.0,8.0,65,0.00,,,0.00,Wunderground v.1.15,2013-07-03 01:11:00,
2013-07-02 18:17:00,73.2,61.2,29.90,West,261,6.0,25.0,66,0.00,,,0.00,Wunderground v.1.15,2013-07-03 01:17:00,
2013-07-02 18:23:00,73.1,60.6,29.90,WSW,255,5.0,25.0,65,0.00,,,0.00,Wunderground v.1.15,2013-07-03 01:23:00,
2013-07-02 18:28:00,72.9,60.4,29.90,WSW,257,6.0,25.0,65,0.00,,,0.00,Wunderground v.1.15,2013-07-03 01:28:00,
2013-07-02 18:34:00,72.7,60.3,29.90,West,262,6.0,25.0,65,0.00,,,0.00,Wunderground v.1.15,2013-07-03 01:34:00,
2013-07-02 18:40:00,72.6,61.0,29.90,SSW,207,5.0,25.0,67,0.00,,,0.00,Wunderground v.1.15,2013-07-03 01:40:00,
2013-07-02 18:46:00,72.5,60.9,29.90,South,190,4.0,25.0,67,0.00,,,0.00,Wunderground v.1.15,2013-07-03 01:46:00,
2013-07-02 18:50:00,72.5,61.3,29.90,SW,216,3.0,3.0,68,0.00,,,0.00,Wunderground v.1.15,2013-07-03 01:50:00,
2013-07-02 18:52:00,72.5,61.3,29.91,SSW,210,3.0,25.0,68,0.00,,,0.00,Wunderground v.1.15,2013-07-03 01:52:00,
2013-07-02 18:58:00,72.2,61.0,29.91,SW,229,2.0,25.0,68,0.00,,,0.00,Wunderground v.1.15,2013-07-03 01:58:00,
2013-07-02 19:03:00,71.9,60.8,29.90,WSW,240,3.0,25.0,68,0.00,,,0.00,Wunderground v.1.15,2013-07-03 02:03:00,
2013-07-02 19:09:00,71.4,61.1,29.91,WSW,253,5.0,25.0,70,0.00,,,0.00,Wunderground v.1.15,2013-07-03 02:09:00,
2013-07-02 19:15:00,71.0,61.1,29.91,SW,224,4.0,25.0,71,0.00,,,0.00,Wunderground v.1.15,2013-07-03 02:15:00,
2013-07-02 19:21:00,70.7,61.2,29.92,SW,234,3.0,25.0,72,0.00,,,0.00,Wunderground v.1.15,2013-07-03 02:21:00,
2013-07-02 19:26:00,70.5,61.0,29.92,SW,215,4.0,25.0,72,0.00,,,0.00,Wunderground v.1.15,2013-07-03 02:26:00,
2013-07-02 19:32:00,70.1,61.0,29.92,WSW,254,5.0,25.0,73,0.00,,,0.00,Wunderground v.1.15,2013-07-03 02:32:00,
2013-07-02 19:34:00,69.9,61.2,29.92,SW,221,6.0,25.0,74,0.00,,,0.00,Wunderground v.1.15,2013-07-03 02:34:00,
2013-07-02 19:40:00,69.3,61.0,29.92,WSW,238,6.0,25.0,75,0.00,,,0.00,Wunderground v.1.15,2013-07-03 02:40:00,
2013-07-02 19:45:00,68.9,61.0,29.92,SW,228,7.0,25.0,76,0.00,,,0.00,Wunderground v.1.15,2013-07-03 02:45:00,
2013-07-02 19:50:00,68.5,61.0,29.92,SW,236,6.0,25.0,77,0.00,,,0.00,Wunderground v.1.15,2013-07-03 02:50:00,
2013-07-02 19:55:00,68.2,61.1,29.92,WSW,238,5.0,25.0,78,0.00,,,0.00,Wunderground v.1.15,2013-07-03 02:55:00,
2013-07-02 20:00:00,67.8,61.0,29.92,SW,232,5.0,25.0,79,0.00,,,0.00,Wunderground v.1.15,2013-07-03 03:00:00,
2013-07-02 20:04:00,67.6,61.2,29.92,West,263,5.0,25.0,80,0.00,,,0.00,Wunderground v.1.15,2013-07-03 03:04:00,
2013-07-02 20:10:00,67.1,61.1,29.92,SW,229,6.0,6.0,81,0.00,,,0.00,Wunderground v.1.15,2013-07-03 03:10:00,
2013-07-02 20:16:00,66.8,60.8,29.93,SW,236,4.0,25.0,81,0.00,,,0.00,Wunderground v.1.15,2013-07-03 03:16:00,
2013-07-02 20:20:00,66.6,60.9,29.92,SW,217,3.0,3.0,82,0.00,,,0.00,Wunderground v.1.15,2013-07-03 03:20:00,
2013-07-02 20:26:00,66.3,61.0,29.92,WSW,245,4.0,25.0,83,0.00,,,0.00,Wunderground v.1.15,2013-07-03 03:26:00,
2013-07-02 20:31:00,66.1,60.8,29.92,WSW,244,4.0,25.0,83,0.00,,,0.00,Wunderground v.1.15,2013-07-03 03:31:00,
2013-07-02 20:36:00,65.9,60.9,29.92,SW,229,3.0,25.0,84,0.00,,,0.00,Wunderground v.1.15,2013-07-03 03:36:00,
2013-07-02 20:42:00,65.8,60.8,29.92,SW,225,1.0,25.0,84,0.00,,,0.00,Wunderground v.1.15,2013-07-03 03:42:00,
2013-07-02 20:43:00,65.7,60.7,29.92,SSW,207,1.0,25.0,84,0.00,,,0.00,Wunderground v.1.15,2013-07-03 03:43:00,
2013-07-02 20:48:00,65.6,60.6,29.92,SW,235,1.0,25.0,84,0.00,,,0.00,Wunderground v.1.15,2013-07-03 03:48:00,
2013-07-02 20:49:00,65.5,60.5,29.92,WSW,240,1.0,25.0,84,0.00,,,0.00,Wunderground v.1.15,2013-07-03 03:49:00,
2013-07-02 20:55:00,65.4,60.8,29.92,SSW,211,1.0,25.0,85,0.00,,,0.00,Wunderground v.1.15,2013-07-03 03:55:00,
2013-07-02 21:01:00,65.3,60.7,29.92,SW,227,0.0,25.0,85,0.00,,,0.00,Wunderground v.1.15,2013-07-03 04:01:00,
2013-07-02 21:02:00,65.3,60.7,29.92,SW,227,0.0,25.0,85,0.00,,,0.00,Wunderground v.1.15,2013-07-03 04:02:00,
2013-07-02 21:03:00,65.3,60.7,29.92,SW,227,0.0,25.0,85,0.00,,,0.00,Wunderground v.1.15,2013-07-03 04:03:00,
2013-07-02 21:04:00,65.2,60.6,29.92,SSW,211,0.0,25.0,85,0.00,,,0.00,Wunderground v.1.15,2013-07-03 04:04:00,
2013-07-02 21:07:00,65.1,60.5,29.92,SW,215,0.0,25.0,85,0.00,,,0.00,Wunderground v.1.15,2013-07-03 04:07:00,
2013-07-02 21:09:00,65.1,60.8,29.92,SW,214,0.0,25.0,86,0.00,,,0.00,Wunderground v.1.15,2013-07-03 04:09:00,
2013-07-02 21:15:00,65.0,60.4,29.92,SW,214,0.0,25.0,85,0.00,,,0.00,Wunderground v.1.15,2013-07-03 04:15:00,
2013-07-02 21:21:00,64.8,60.5,29.92,SW,214,0.0,25.0,86,0.00,,,0.00,Wunderground v.1.15,2013-07-03 04:21:00,
2013-07-02 21:27:00,64.8,60.5,29.92,SW,232,0.0,25.0,86,0.00,,,0.00,Wunderground v.1.15,2013-07-03 04:27:00,
2013-07-02 21:32:00,64.7,60.4,29.92,SW,236,1.0,25.0,86,0.00,,,0.00,Wunderground v.1.15,2013-07-03 04:32:00,
2013-07-02 21:34:00,64.7,60.4,29.92,SW,236,1.0,25.0,86,0.00,,,0.00,Wunderground v.1.15,2013-07-03 04:34:00,
2013-07-02 21:38:00,64.6,60.3,29.92,SW,236,0.0,25.0,86,0.00,,,0.00,Wunderground v.1.15,2013-07-03 04:38:00,
2013-07-02 21:44:00,64.5,60.5,29.92,SW,236,0.0,25.0,87,0.00,,,0.00,Wunderground v.1.15,2013-07-03 04:44:00,
2013-07-02 21:46:00,64.5,60.5,29.92,SW,236,0.0,25.0,87,0.00,,,0.00,Wunderground v.1.15,2013-07-03 04:46:00,
2013-07-02 21:50:00,64.4,60.1,29.92,SW,236,0.0,25.0,86,0.00,,,0.00,Wunderground v.1.15,2013-07-03 04:50:00,
2013-07-02 21:56:00,64.3,60.0,29.92,SW,236,0.0,25.0,86,0.00,,,0.00,Wunderground v.1.15,2013-07-03 04:56:00,
2013-07-02 22:01:00,64.2,59.9,29.92,SW,236,0.0,25.0,86,0.00,,,0.00,Wunderground v.1.15,2013-07-03 05:01:00,
2013-07-02 22:04:00,64.2,59.9,29.92,SW,236,0.0,25.0,86,0.00,,,0.00,Wunderground v.1.15,2013-07-03 05:04:00,
2013-07-02 22:10:00,64.1,60.2,29.92,SW,236,0.0,25.0,87,0.00,,,0.00,Wunderground v.1.15,2013-07-03 05:10:00,
2013-07-02 22:14:00,63.9,60.0,29.92,SSW,211,0.0,25.0,87,0.00,,,0.00,Wunderground v.1.15,2013-07-03 05:14:00,
2013-07-02 22:20:00,63.7,59.8,29.92,SSW,211,0.0,25.0,87,0.00,,,0.00,Wunderground v.1.15,2013-07-03 05:20:00,
2013-07-02 22:26:00,63.5,59.6,29.92,SSW,211,0.0,25.0,87,0.00,,,0.00,Wunderground v.1.15,2013-07-03 05:26:00,
2013-07-02 22:29:00,63.4,59.5,29.92,SSW,211,0.0,25.0,87,0.00,,,0.00,Wunderground v.1.15,2013-07-03 05:29:00,
2013-07-02 22:35:00,63.2,59.6,29.92,SSW,211,0.0,25.0,88,0.00,,,0.00,Wunderground v.1.15,2013-07-03 05:35:00,
2013-07-02 22:41:00,63.0,59.4,29.91,SSW,211,0.0,25.0,88,0.00,,,0.00,Wunderground v.1.15,2013-07-03 05:41:00,
2013-07-02 22:47:00,62.8,59.2,29.91,SSW,211,0.0,25.0,88,0.00,,,0.00,Wunderground v.1.15,2013-07-03 05:47:00,
2013-07-02 22:52:00,62.7,59.1,29.91,SSW,211,0.0,25.0,88,0.00,,,0.00,Wunderground v.1.15,2013-07-03 05:52:00,
2013-07-02 22:57:00,62.7,59.4,29.91,SSW,211,0.0,25.0,89,0.00,,,0.00,Wunderground v.1.15,2013-07-03 05:57:00,
2013-07-02 22:58:00,62.7,59.4,29.91,SSW,211,0.0,25.0,89,0.00,,,0.00,Wunderground v.1.15,2013-07-03 05:58:00,
2013-07-02 23:03:00,62.5,58.9,29.91,SSW,211,0.0,25.0,88,0.00,,,0.00,Wunderground v.1.15,2013-07-03 06:03:00,
2013-07-02 23:09:00,62.3,58.7,29.91,SSW,211,0.0,25.0,88,0.00,,,0.00,Wunderground v.1.15,2013-07-03 06:09:00,
2013-07-02 23:15:00,62.0,58.4,29.91,NW,311,0.0,25.0,88,0.00,,,0.00,Wunderground v.1.15,2013-07-03 06:15:00,
2013-07-02 23:16:00,62.0,58.4,29.91,NW,311,0.0,25.0,88,0.00,,,0.00,Wunderground v.1.15,2013-07-03 06:16:00,
2013-07-02 23:17:00,62.0,58.7,29.91,NW,311,0.0,25.0,89,0.00,,,0.00,Wunderground v.1.15,2013-07-03 06:17:00,
2013-07-02 23:18:00,61.9,58.6,29.90,NW,311,0.0,25.0,89,0.00,,,0.00,Wunderground v.1.15,2013-07-03 06:18:00,
2013-07-02 23:22:00,61.8,58.5,29.90,NW,311,0.0,25.0,89,0.00,,,0.00,Wunderground v.1.15,2013-07-03 06:22:00,
2013-07-02 23:27:00,61.8,58.5,29.90,NW,311,0.0,25.0,89,0.00,,,0.00,Wunderground v.1.15,2013-07-03 06:27:00,
2013-07-02 23:32:00,61.7,58.4,29.90,NW,311,0.0,25.0,89,0.00,,,0.00,Wunderground v.1.15,2013-07-03 06:32:00,
2013-07-02 23:38:00,61.5,58.2,29.90,NW,311,0.0,25.0,89,0.00,,,0.00,Wunderground v.1.15,2013-07-03 06:38:00,
2013-07-02 23:41:00,61.4,58.1,29.90,NW,311,0.0,25.0,89,0.00,,,0.00,Wunderground v.1.15,2013-07-03 06:41:00,
2013-07-02 23:47:00,61.3,58.3,29.90,NW,311,0.0,25.0,90,0.00,,,0.00,Wunderground v.1.15,2013-07-03 06:47:00,
2013-07-02 23:48:00,61.3,58.3,29.90,NW,311,0.0,25.0,90,0.00,,,0.00,Wunderground v.1.15,2013-07-03 06:48:00,
2013-07-02 23:53:00,61.2,57.9,29.90,NW,311,0.0,25.0,89,0.00,,,0.00,Wunderground v.1.15,2013-07-03 06:53:00,
2013-07-02 23:58:00,61.0,57.7,29.90,NW,311,0.0,25.0,89,0.00,,,0.00,Wunderground v.1.15,2013-07-03 06:58:00,
2013-07-02 23:59:00,60.9,57.6,29.90,NW,311,0.0,25.0,89,0.00,,,0.00,Wunderground v.1.15,2013-07-03 06:59:00,